Terminal Aerodrome Forecast
Issued by NWS

Home | Current Version | Previous Version | Text Only | Print | Product List | Glossary On
Versions: 1 2 3 4 5 6 7 8 9 10 11 12 13
000
FTUS45 KPIH 230520
TAFSUN
TAF
KSUN 230520Z 2306/2412 33008KT P6SM BKN060 BKN090
     FM232100 14008KT P6SM SKC
     FM240200 31008KT P6SM SKC
      AMD LTD TO CLD VIS AND WIND TIL 231300=

USA.gov is the U.S. government's official web portal to all federal, state and local government web resources and services.